sensor_id;sensor_type;location;lat;lon;timestamp;pressure;altitude;pressure_sealevel;temperature
76541;BMP280;65385;55.772;37.658;2023-11-21T00:00:51;99233.94;;;-7.99
76541;BMP280;65385;55.772;37.658;2023-11-21T00:01:52;99226.59;;;-8.02
76541;BMP280;65385;55.772;37.658;2023-11-21T00:02:53;99221.66;;;-8.03
76541;BMP280;65385;55.772;37.658;2023-11-21T00:03:53;99202.47;;;-8.06
76541;BMP280;65385;55.772;37.658;2023-11-21T00:04:55;99215.28;;;-8.08
76541;BMP280;65385;55.772;37.658;2023-11-21T00:05:56;99215.97;;;-8.06
76541;BMP280;65385;55.772;37.658;2023-11-21T00:06:57;99230.63;;;-8.09
76541;BMP280;65385;55.772;37.658;2023-11-21T00:07:58;99234.78;;;-8.08
76541;BMP280;65385;55.772;37.658;2023-11-21T00:08:59;99221.41;;;-8.10
76541;BMP280;65385;55.772;37.658;2023-11-21T00:09:59;99217.16;;;-8.10
76541;BMP280;65385;55.772;37.658;2023-11-21T00:11:00;99244.91;;;-8.08
76541;BMP280;65385;55.772;37.658;2023-11-21T00:12:02;99229.94;;;-8.11
76541;BMP280;65385;55.772;37.658;2023-11-21T00:13:02;99229.94;;;-8.11
76541;BMP280;65385;55.772;37.658;2023-11-21T00:14:03;99238.53;;;-8.12
76541;BMP280;65385;55.772;37.658;2023-11-21T00:15:05;99222.00;;;-8.16
76541;BMP280;65385;55.772;37.658;2023-11-21T00:16:06;99225.84;;;-8.12
76541;BMP280;65385;55.772;37.658;2023-11-21T00:17:08;99252.00;;;-8.12
76541;BMP280;65385;55.772;37.658;2023-11-21T00:18:08;99231.31;;;-8.07
76541;BMP280;65385;55.772;37.658;2023-11-21T00:19:09;99223.03;;;-8.09
76541;BMP280;65385;55.772;37.658;2023-11-21T00:20:10;99228.63;;;-8.06
76541;BMP280;65385;55.772;37.658;2023-11-21T00:21:13;99222.50;;;-8.13
76541;BMP280;65385;55.772;37.658;2023-11-21T00:22:14;99232.38;;;-8.10
76541;BMP280;65385;55.772;37.658;2023-11-21T00:23:16;99233.28;;;-8.11
76541;BMP280;65385;55.772;37.658;2023-11-21T00:24:17;99236.00;;;-8.12
76541;BMP280;65385;55.772;37.658;2023-11-21T00:25:18;99230.25;;;-8.14
76541;BMP280;65385;55.772;37.658;2023-11-21T00:26:18;99209.03;;;-8.13
76541;BMP280;65385;55.772;37.658;2023-11-21T00:27:25;99219.03;;;-8.12
76541;BMP280;65385;55.772;37.658;2023-11-21T00:28:26;99221.72;;;-8.13
76541;BMP280;65385;55.772;37.658;2023-11-21T00:29:27;99233.44;;;-8.12
76541;BMP280;65385;55.772;37.658;2023-11-21T00:30:27;99214.63;;;-8.10
76541;BMP280;65385;55.772;37.658;2023-11-21T00:31:29;99225.19;;;-8.14
76541;BMP280;65385;55.772;37.658;2023-11-21T00:32:31;99238.00;;;-8.16
76541;BMP280;65385;55.772;37.658;2023-11-21T00:33:32;99230.53;;;-8.17
76541;BMP280;65385;55.772;37.658;2023-11-21T00:34:33;99216.94;;;-8.16
76541;BMP280;65385;55.772;37.658;2023-11-21T00:35:35;99231.19;;;-8.15
76541;BMP280;65385;55.772;37.658;2023-11-21T00:36:36;99225.19;;;-8.14
76541;BMP280;65385;55.772;37.658;2023-11-21T00:37:36;99230.13;;;-8.13
76541;BMP280;65385;55.772;37.658;2023-11-21T00:38:40;99227.31;;;-8.10
76541;BMP280;65385;55.772;37.658;2023-11-21T00:39:41;99228.78;;;-8.07
76541;BMP280;65385;55.772;37.658;2023-11-21T00:40:41;99220.84;;;-8.04
76541;BMP280;65385;55.772;37.658;2023-11-21T00:41:42;99224.19;;;-8.03
76541;BMP280;65385;55.772;37.658;2023-11-21T00:42:45;99223.13;;;-8.01
76541;BMP280;65385;55.772;37.658;2023-11-21T00:43:46;99221.25;;;-7.99
76541;BMP280;65385;55.772;37.658;2023-11-21T00:44:47;99226.03;;;-7.96
76541;BMP280;65385;55.772;37.658;2023-11-21T00:45:48;99224.16;;;-7.94
76541;BMP280;65385;55.772;37.658;2023-11-21T00:46:49;99216.25;;;-7.91
76541;BMP280;65385;55.772;37.658;2023-11-21T00:47:51;99218.13;;;-7.93
76541;BMP280;65385;55.772;37.658;2023-11-21T00:48:51;99227.47;;;-7.93
76541;BMP280;65385;55.772;37.658;2023-11-21T00:49:52;99220.00;;;-7.95
76541;BMP280;65385;55.772;37.658;2023-11-21T00:50:53;99218.13;;;-7.93
76541;BMP280;65385;55.772;37.658;2023-11-21T00:51:56;99210.19;;;-7.98
76541;BMP280;65385;55.772;37.658;2023-11-21T00:53:00;99225.22;;;-7.96
76541;BMP280;65385;55.772;37.658;2023-11-21T00:54:02;99223.50;;;-7.96
76541;BMP280;65385;55.772;37.658;2023-11-21T00:55:04;99208.28;;;-7.96
76541;BMP280;65385;55.772;37.658;2023-11-21T00:56:05;99206.84;;;-7.98
76541;BMP280;65385;55.772;37.658;2023-11-21T00:57:07;99211.94;;;-7.98
76541;BMP280;65385;55.772;37.658;2023-11-21T00:58:09;99211.50;;;-8.03
76541;BMP280;65385;55.772;37.658;2023-11-21T00:59:10;99215.25;;;-7.98
76541;BMP280;65385;55.772;37.658;2023-11-21T01:00:11;99224.03;;;-8.02
76541;BMP280;65385;55.772;37.658;2023-11-21T01:01:18;99215.25;;;-7.98
76541;BMP280;65385;55.772;37.658;2023-11-21T01:02:19;99212.72;;;-7.98
76541;BMP280;65385;55.772;37.658;2023-11-21T01:03:20;99222.88;;;-7.98
76541;BMP280;65385;55.772;37.658;2023-11-21T01:04:20;99205.13;;;-7.98
76541;BMP280;65385;55.772;37.658;2023-11-21T01:05:21;99219.53;;;-7.98
76541;BMP280;65385;55.772;37.658;2023-11-21T01:06:22;99202.56;;;-7.98
76541;BMP280;65385;55.772;37.658;2023-11-21T01:07:23;99207.75;;;-7.99
76541;BMP280;65385;55.772;37.658;2023-11-21T01:08:23;99212.03;;;-8.00
76541;BMP280;65385;55.772;37.658;2023-11-21T01:09:24;99213.91;;;-8.02
76541;BMP280;65385;55.772;37.658;2023-11-21T01:10:26;99231.00;;;-8.04
76541;BMP280;65385;55.772;37.658;2023-11-21T01:11:28;99227.53;;;-8.03
76541;BMP280;65385;55.772;37.658;2023-11-21T01:12:28;99215.78;;;-8.04
76541;BMP280;65385;55.772;37.658;2023-11-21T01:13:29;99214.72;;;-8.01
76541;BMP280;65385;55.772;37.658;2023-11-21T01:14:30;99225.66;;;-8.01
76541;BMP280;65385;55.772;37.658;2023-11-21T01:15:31;99225.66;;;-8.01
76541;BMP280;65385;55.772;37.658;2023-11-21T01:16:33;99221.38;;;-8.00
76541;BMP280;65385;55.772;37.658;2023-11-21T01:17:34;99221.38;;;-8.00
76541;BMP280;65385;55.772;37.658;2023-11-21T01:18:35;99220.09;;;-8.04
76541;BMP280;65385;55.772;37.658;2023-11-21T01:19:36;99231.78;;;-8.03
76541;BMP280;65385;55.772;37.658;2023-11-21T01:20:37;99216.75;;;-8.05
76541;BMP280;65385;55.772;37.658;2023-11-21T01:21:38;99234.25;;;-8.12
76541;BMP280;65385;55.772;37.658;2023-11-21T01:22:39;99216.88;;;-8.07
76541;BMP280;65385;55.772;37.658;2023-11-21T01:23:40;99234.91;;;-8.10
76541;BMP280;65385;55.772;37.658;2023-11-21T01:24:41;99212.75;;;-8.08
76541;BMP280;65385;55.772;37.658;2023-11-21T01:25:41;99223.44;;;-8.14
76541;BMP280;65385;55.772;37.658;2023-11-21T01:26:44;99224.25;;;-8.13
76541;BMP280;65385;55.772;37.658;2023-11-21T01:27:47;99218.25;;;-8.12
76541;BMP280;65385;55.772;37.658;2023-11-21T01:28:47;99218.53;;;-8.15
76541;BMP280;65385;55.772;37.658;2023-11-21T01:29:52;99213.19;;;-8.12
76541;BMP280;65385;55.772;37.658;2023-11-21T01:30:54;99223.94;;;-8.10
76541;BMP280;65385;55.772;37.658;2023-11-21T01:31:56;99214.75;;;-8.11
76541;BMP280;65385;55.772;37.658;2023-11-21T01:32:58;99210.88;;;-8.06
76541;BMP280;65385;55.772;37.658;2023-11-21T01:33:59;99206.44;;;-8.03
76541;BMP280;65385;55.772;37.658;2023-11-21T01:35:00;99217.38;;;-8.03
76541;BMP280;65385;55.772;37.658;2023-11-21T01:36:01;99217.09;;;-8.00
76541;BMP280;65385;55.772;37.658;2023-11-21T01:37:01;99209.38;;;-7.98
76541;BMP280;65385;55.772;37.658;2023-11-21T01:38:05;99208.00;;;-7.93
76541;BMP280;65385;55.772;37.658;2023-11-21T01:39:08;99213.22;;;-7.94
76541;BMP280;65385;55.772;37.658;2023-11-21T01:40:11;99208.00;;;-7.93
76541;BMP280;65385;55.772;37.658;2023-11-21T01:41:14;99218.41;;;-7.96
76541;BMP280;65385;55.772;37.658;2023-11-21T01:42:15;99230.47;;;-7.98
76541;BMP280;65385;55.772;37.658;2023-11-21T01:43:16;99203.78;;;-8.02
76541;BMP280;65385;55.772;37.658;2023-11-21T01:44:17;99210.44;;;-8.01
76541;BMP280;65385;55.772;37.658;2023-11-21T01:45:20;99204.88;;;-8.04
76541;BMP280;65385;55.772;37.658;2023-11-21T01:46:20;99218.31;;;-8.04
76541;BMP280;65385;55.772;37.658;2023-11-21T01:47:22;99213.25;;;-8.04
76541;BMP280;65385;55.772;37.658;2023-11-21T01:48:23;99217.69;;;-8.06
76541;BMP280;65385;55.772;37.658;2023-11-21T01:49:24;99216.59;;;-8.03
76541;BMP280;65385;55.772;37.658;2023-11-21T01:50:25;99211.81;;;-8.07
76541;BMP280;65385;55.772;37.658;2023-11-21T01:51:26;99206.31;;;-8.02
76541;BMP280;65385;55.772;37.658;2023-11-21T01:52:27;99207.25;;;-8.03
76541;BMP280;65385;55.772;37.658;2023-11-21T01:53:30;99220.22;;;-8.06
76541;BMP280;65385;55.772;37.658;2023-11-21T01:54:31;99216.09;;;-8.07
76541;BMP280;65385;55.772;37.658;2023-11-21T01:55:32;99227.81;;;-8.06
76541;BMP280;65385;55.772;37.658;2023-11-21T01:56:34;99212.63;;;-8.06
76541;BMP280;65385;55.772;37.658;2023-11-21T01:57:36;99214.22;;;-8.05
76541;BMP280;65385;55.772;37.658;2023-11-21T01:58:40;99213.41;;;-8.06
76541;BMP280;65385;55.772;37.658;2023-11-21T01:59:42;99222.25;;;-8.10
76541;BMP280;65385;55.772;37.658;2023-11-21T02:00:44;99233.19;;;-8.09
76541;BMP280;65385;55.772;37.658;2023-11-21T02:01:44;99228.91;;;-8.09
76541;BMP280;65385;55.772;37.658;2023-11-21T02:02:48;99225.28;;;-8.06
76541;BMP280;65385;55.772;37.658;2023-11-21T02:03:49;99218.50;;;-8.06
76541;BMP280;65385;55.772;37.658;2023-11-21T02:04:49;99224.34;;;-8.05
76541;BMP280;65385;55.772;37.658;2023-11-21T02:05:50;99223.25;;;-8.02
76541;BMP280;65385;55.772;37.658;2023-11-21T02:06:53;99231.66;;;-8.02
76541;BMP280;65385;55.772;37.658;2023-11-21T02:07:55;99226.59;;;-8.02
76541;BMP280;65385;55.772;37.658;2023-11-21T02:08:56;99228.19;;;-8.01
76541;BMP280;65385;55.772;37.658;2023-11-21T02:09:58;99212.03;;;-8.00
76541;BMP280;65385;55.772;37.658;2023-11-21T02:11:00;99204.81;;;-7.95
76541;BMP280;65385;55.772;37.658;2023-11-21T02:12:01;99194.00;;;-7.97
76541;BMP280;65385;55.772;37.658;2023-11-21T02:13:01;99205.75;;;-7.96
76541;BMP280;65385;55.772;37.658;2023-11-21T02:14:03;99203.53;;;-7.99
76541;BMP280;65385;55.772;37.658;2023-11-21T02:15:06;99206.97;;;-8.00
76541;BMP280;65385;55.772;37.658;2023-11-21T02:16:10;99228.88;;;-7.99
76541;BMP280;65385;55.772;37.658;2023-11-21T02:17:13;99208.34;;;-8.06
76541;BMP280;65385;55.772;37.658;2023-11-21T02:18:14;99209.16;;;-8.05
76541;BMP280;65385;55.772;37.658;2023-11-21T02:19:19;99217.84;;;-8.08
76541;BMP280;65385;55.772;37.658;2023-11-21T02:20:21;99223.69;;;-8.07
76541;BMP280;65385;55.772;37.658;2023-11-21T02:21:23;99221.72;;;-8.13
76541;BMP280;65385;55.772;37.658;2023-11-21T02:22:30;99226.78;;;-8.13
76541;BMP280;65385;55.772;37.658;2023-11-21T02:23:31;99212.91;;;-8.09
76541;BMP280;65385;55.772;37.658;2023-11-21T02:24:32;99217.16;;;-8.10
76541;BMP280;65385;55.772;37.658;2023-11-21T02:25:33;99207.03;;;-8.10
76541;BMP280;65385;55.772;37.658;2023-11-21T02:26:34;99218.88;;;-8.10
76541;BMP280;65385;55.772;37.658;2023-11-21T02:27:35;99225.69;;;-8.11
76541;BMP280;65385;55.772;37.658;2023-11-21T02:28:36;99214.75;;;-8.11
76541;BMP280;65385;55.772;37.658;2023-11-21T02:29:39;99214.75;;;-8.11
76541;BMP280;65385;55.772;37.658;2023-11-21T02:30:39;99206.78;;;-8.16
76541;BMP280;65385;55.772;37.658;2023-11-21T02:31:40;99228.66;;;-8.15
76541;BMP280;65385;55.772;37.658;2023-11-21T02:32:48;99200.13;;;-8.17
76541;BMP280;65385;55.772;37.658;2023-11-21T02:33:49;99203.59;;;-8.18
76541;BMP280;65385;55.772;37.658;2023-11-21T02:34:49;99219.06;;;-8.21
76541;BMP280;65385;55.772;37.658;2023-11-21T02:35:50;99215.75;;;-8.22
76541;BMP280;65385;55.772;37.658;2023-11-21T02:36:55;99220.16;;;-8.24
76541;BMP280;65385;55.772;37.658;2023-11-21T02:37:57;99216.69;;;-8.23
76541;BMP280;65385;55.772;37.658;2023-11-21T02:38:59;99204.81;;;-8.22
76541;BMP280;65385;55.772;37.658;2023-11-21T02:39:59;99199.59;;;-8.21
76541;BMP280;65385;55.772;37.658;2023-11-21T02:41:00;99218.66;;;-8.17
76541;BMP280;65385;55.772;37.658;2023-11-21T02:42:01;99221.34;;;-8.18
76541;BMP280;65385;55.772;37.658;2023-11-21T02:43:02;99230.41;;;-8.16
76541;BMP280;65385;55.772;37.658;2023-11-21T02:44:03;99235.88;;;-8.20
76541;BMP280;65385;55.772;37.658;2023-11-21T02:45:04;99217.47;;;-8.22
76541;BMP280;65385;55.772;37.658;2023-11-21T02:46:05;99232.44;;;-8.19
76541;BMP280;65385;55.772;37.658;2023-11-21T02:47:07;99242.81;;;-8.22
76541;BMP280;65385;55.772;37.658;2023-11-21T02:48:09;99225.88;;;-8.22
76541;BMP280;65385;55.772;37.658;2023-11-21T02:49:10;99215.88;;;-8.23
76541;BMP280;65385;55.772;37.658;2023-11-21T02:50:11;99234.88;;;-8.27
76541;BMP280;65385;55.772;37.658;2023-11-21T02:51:11;99230.16;;;-8.22
76541;BMP280;65385;55.772;37.658;2023-11-21T02:52:13;99239.75;;;-8.26
76541;BMP280;65385;55.772;37.658;2023-11-21T02:53:14;99216.97;;;-8.26
76541;BMP280;65385;55.772;37.658;2023-11-21T02:54:16;99236.88;;;-8.31
76541;BMP280;65385;55.772;37.658;2023-11-21T02:55:17;99220.84;;;-8.31
76541;BMP280;65385;55.772;37.658;2023-11-21T02:56:18;99237.41;;;-8.27
76541;BMP280;65385;55.772;37.658;2023-11-21T02:57:19;99222.31;;;-8.29
76541;BMP280;65385;55.772;37.658;2023-11-21T02:58:19;99239.00;;;-8.26
76541;BMP280;65385;55.772;37.658;2023-11-21T02:59:20;99217.13;;;-8.27
76541;BMP280;65385;55.772;37.658;2023-11-21T03:00:21;99217.25;;;-8.29
76541;BMP280;65385;55.772;37.658;2023-11-21T03:01:25;99224.06;;;-8.29
76541;BMP280;65385;55.772;37.658;2023-11-21T03:02:25;99234.19;;;-8.29
76541;BMP280;65385;55.772;37.658;2023-11-21T03:03:26;99225.91;;;-8.31
76541;BMP280;65385;55.772;37.658;2023-11-21T03:04:27;99222.72;;;-8.33
76541;BMP280;65385;55.772;37.658;2023-11-21T03:05:28;99241.41;;;-8.34
76541;BMP280;65385;55.772;37.658;2023-11-21T03:06:29;99242.50;;;-8.37
76541;BMP280;65385;55.772;37.658;2023-11-21T03:07:30;99233.16;;;-8.36
76541;BMP280;65385;55.772;37.658;2023-11-21T03:08:30;99239.94;;;-8.37
76541;BMP280;65385;55.772;37.658;2023-11-21T03:09:31;99229.03;;;-8.37
76541;BMP280;65385;55.772;37.658;2023-11-21T03:10:32;99241.81;;;-8.39
76541;BMP280;65385;55.772;37.658;2023-11-21T03:11:33;99228.53;;;-8.41
76541;BMP280;65385;55.772;37.658;2023-11-21T03:12:34;99245.56;;;-8.43
76541;BMP280;65385;55.772;37.658;2023-11-21T03:13:35;99247.16;;;-8.42
76541;BMP280;65385;55.772;37.658;2023-11-21T03:14:35;99240.22;;;-8.40
76541;BMP280;65385;55.772;37.658;2023-11-21T03:15:36;99247.69;;;-8.38
76541;BMP280;65385;55.772;37.658;2023-11-21T03:16:37;99254.34;;;-8.37
76541;BMP280;65385;55.772;37.658;2023-11-21T03:17:39;99243.28;;;-8.36
76541;BMP280;65385;55.772;37.658;2023-11-21T03:18:40;99231.91;;;-8.32
76541;BMP280;65385;55.772;37.658;2023-11-21T03:19:42;99234.88;;;-8.27
76541;BMP280;65385;55.772;37.658;2023-11-21T03:20:43;99238.47;;;-8.30
76541;BMP280;65385;55.772;37.658;2023-11-21T03:21:46;99248.06;;;-8.33
76541;BMP280;65385;55.772;37.658;2023-11-21T03:22:47;99248.59;;;-8.30
76541;BMP280;65385;55.772;37.658;2023-11-21T03:23:49;99245.00;;;-8.27
76541;BMP280;65385;55.772;37.658;2023-11-21T03:24:49;99246.88;;;-8.29
76541;BMP280;65385;55.772;37.658;2023-11-21T03:25:50;99227.53;;;-8.30
76541;BMP280;65385;55.772;37.658;2023-11-21T03:26:51;99263.38;;;-8.25
76541;BMP280;65385;55.772;37.658;2023-11-21T03:27:52;99238.03;;;-8.25
76541;BMP280;65385;55.772;37.658;2023-11-21T03:28:53;99235.78;;;-8.28
76541;BMP280;65385;55.772;37.658;2023-11-21T03:29:54;99250.88;;;-8.36
76541;BMP280;65385;55.772;37.658;2023-11-21T03:30:55;99230.63;;;-8.36
76541;BMP280;65385;55.772;37.658;2023-11-21T03:31:56;99256.63;;;-8.34
76541;BMP280;65385;55.772;37.658;2023-11-21T03:32:57;99247.41;;;-8.35
76541;BMP280;65385;55.772;37.658;2023-11-21T03:33:58;99242.75;;;-8.30
76541;BMP280;65385;55.772;37.658;2023-11-21T03:34:58;99247.91;;;-8.32
76541;BMP280;65385;55.772;37.658;2023-11-21T03:35:59;99266.59;;;-8.33
76541;BMP280;65385;55.772;37.658;2023-11-21T03:37:00;99250.59;;;-8.33
76541;BMP280;65385;55.772;37.658;2023-11-21T03:38:01;99259.16;;;-8.34
76541;BMP280;65385;55.772;37.658;2023-11-21T03:39:03;99249.66;;;-8.32
76541;BMP280;65385;55.772;37.658;2023-11-21T03:40:06;99263.00;;;-8.30
76541;BMP280;65385;55.772;37.658;2023-11-21T03:41:08;99262.22;;;-8.31
76541;BMP280;65385;55.772;37.658;2023-11-21T03:42:12;99259.78;;;-8.32
76541;BMP280;65385;55.772;37.658;2023-11-21T03:43:13;99263.13;;;-8.32
76541;BMP280;65385;55.772;37.658;2023-11-21T03:44:14;99272.22;;;-8.29
76541;BMP280;65385;55.772;37.658;2023-11-21T03:45:15;99269.53;;;-8.28
76541;BMP280;65385;55.772;37.658;2023-11-21T03:46:16;99259.53;;;-8.29
76541;BMP280;65385;55.772;37.658;2023-11-21T03:47:17;99268.97;;;-8.31
76541;BMP280;65385;55.772;37.658;2023-11-21T03:48:19;99268.97;;;-8.31
76541;BMP280;65385;55.772;37.658;2023-11-21T03:49:20;99283.53;;;-8.33
76541;BMP280;65385;55.772;37.658;2023-11-21T03:50:21;99279.94;;;-8.31
76541;BMP280;65385;55.772;37.658;2023-11-21T03:51:22;99277.53;;;-8.32
76541;BMP280;65385;55.772;37.658;2023-11-21T03:52:23;99268.97;;;-8.31
76541;BMP280;65385;55.772;37.658;2023-11-21T03:53:24;99276.59;;;-8.31
76541;BMP280;65385;55.772;37.658;2023-11-21T03:54:25;99278.31;;;-8.32
76541;BMP280;65385;55.772;37.658;2023-11-21T03:55:26;99276.88;;;-8.34
76541;BMP280;65385;55.772;37.658;2023-11-21T03:56:26;99260.47;;;-8.30
76541;BMP280;65385;55.772;37.658;2023-11-21T03:57:27;99269.81;;;-8.31
76541;BMP280;65385;55.772;37.658;2023-11-21T03:58:28;99268.50;;;-8.35
76541;BMP280;65385;55.772;37.658;2023-11-21T03:59:29;99262.09;;;-8.39
76541;BMP280;65385;55.772;37.658;2023-11-21T04:00:30;99276.50;;;-8.40
76541;BMP280;65385;55.772;37.658;2023-11-21T04:01:30;99274.22;;;-8.43
76541;BMP280;65385;55.772;37.658;2023-11-21T04:02:31;99273.03;;;-8.38
76541;BMP280;65385;55.772;37.658;2023-11-21T04:03:32;99269.56;;;-8.37
76541;BMP280;65385;55.772;37.658;2023-11-21T04:04:34;99277.28;;;-8.39
76541;BMP280;65385;55.772;37.658;2023-11-21T04:05:34;99261.38;;;-8.31
76541;BMP280;65385;55.772;37.658;2023-11-21T04:06:35;99276.72;;;-8.33
76541;BMP280;65385;55.772;37.658;2023-11-21T04:07:37;99264.22;;;-8.34
76541;BMP280;65385;55.772;37.658;2023-11-21T04:08:39;99246.31;;;-8.33
76541;BMP280;65385;55.772;37.658;2023-11-21T04:09:40;99271.03;;;-8.35
76541;BMP280;65385;55.772;37.658;2023-11-21T04:10:42;99279.69;;;-8.37
76541;BMP280;65385;55.772;37.658;2023-11-21T04:11:42;99269.84;;;-8.41
76541;BMP280;65385;55.772;37.658;2023-11-21T04:12:43;99277.44;;;-8.41
76541;BMP280;65385;55.772;37.658;2023-11-21T04:13:45;99261.47;;;-8.41
76541;BMP280;65385;55.772;37.658;2023-11-21T04:14:47;99284.91;;;-8.39
76541;BMP280;65385;55.772;37.658;2023-11-21T04:15:48;99277.16;;;-8.37
76541;BMP280;65385;55.772;37.658;2023-11-21T04:16:48;99276.50;;;-8.40
76541;BMP280;65385;55.772;37.658;2023-11-21T04:17:49;99264.63;;;-8.39
76541;BMP280;65385;55.772;37.658;2023-11-21T04:18:50;99276.22;;;-8.36
76541;BMP280;65385;55.772;37.658;2023-11-21T04:19:51;99278.09;;;-8.38
76541;BMP280;65385;55.772;37.658;2023-11-21T04:20:52;99269.56;;;-8.37
76541;BMP280;65385;55.772;37.658;2023-11-21T04:21:52;99279.69;;;-8.37
76541;BMP280;65385;55.772;37.658;2023-11-21T04:22:53;99285.69;;;-8.38
76541;BMP280;65385;55.772;37.658;2023-11-21T04:23:54;99278.91;;;-8.38
76541;BMP280;65385;55.772;37.658;2023-11-21T04:24:55;99284.75;;;-8.37
76541;BMP280;65385;55.772;37.658;2023-11-21T04:25:56;99267.69;;;-8.35
76541;BMP280;65385;55.772;37.658;2023-11-21T04:26:57;99289.03;;;-8.38
76541;BMP280;65385;55.772;37.658;2023-11-21T04:27:58;99261.28;;;-8.40
76541;BMP280;65385;55.772;37.658;2023-11-21T04:28:59;99257.81;;;-8.38
76541;BMP280;65385;55.772;37.658;2023-11-21T04:30:00;99268.22;;;-8.42
76541;BMP280;65385;55.772;37.658;2023-11-21T04:31:00;99298.09;;;-8.45
76541;BMP280;65385;55.772;37.658;2023-11-21T04:32:01;99265.31;;;-8.47
76541;BMP280;65385;55.772;37.658;2023-11-21T04:33:03;99280.09;;;-8.52
76541;BMP280;65385;55.772;37.658;2023-11-21T04:34:03;99299.47;;;-8.51
76541;BMP280;65385;55.772;37.658;2023-11-21T04:35:07;99273.84;;;-8.48
76541;BMP280;65385;55.772;37.658;2023-11-21T04:36:11;99282.66;;;-8.52
76541;BMP280;65385;55.772;37.658;2023-11-21T04:37:12;99284.50;;;-8.54
76541;BMP280;65385;55.772;37.658;2023-11-21T04:38:12;99277.56;;;-8.52
76541;BMP280;65385;55.772;37.658;2023-11-21T04:39:13;99286.38;;;-8.46
76541;BMP280;65385;55.772;37.658;2023-11-21T04:40:14;99303.75;;;-8.51
76541;BMP280;65385;55.772;37.658;2023-11-21T04:41:15;99272.50;;;-8.52
76541;BMP280;65385;55.772;37.658;2023-11-21T04:42:15;99292.41;;;-8.57
76541;BMP280;65385;55.772;37.658;2023-11-21T04:43:16;99287.34;;;-8.57
76541;BMP280;65385;55.772;37.658;2023-11-21T04:44:17;99289.56;;;-8.54
76541;BMP280;65385;55.772;37.658;2023-11-21T04:45:17;99287.97;;;-8.55
76541;BMP280;65385;55.772;37.658;2023-11-21T04:46:18;99289.88;;;-8.57
76541;BMP280;65385;55.772;37.658;2023-11-21T04:47:19;99297.31;;;-8.55
76541;BMP280;65385;55.772;37.658;2023-11-21T04:48:20;99291.19;;;-8.53
76541;BMP280;65385;55.772;37.658;2023-11-21T04:49:21;99304.53;;;-8.51
76541;BMP280;65385;55.772;37.658;2023-11-21T04:50:21;99293.03;;;-8.45
76541;BMP280;65385;55.772;37.658;2023-11-21T04:51:22;99297.97;;;-8.44
76541;BMP280;65385;55.772;37.658;2023-11-21T04:52:23;99306.50;;;-8.45
76541;BMP280;65385;55.772;37.658;2023-11-21T04:53:24;99301.44;;;-8.45
76541;BMP280;65385;55.772;37.658;2023-11-21T04:54:25;99315.47;;;-8.50
76541;BMP280;65385;55.772;37.658;2023-11-21T04:55:26;99309.72;;;-8.52
76541;BMP280;65385;55.772;37.658;2023-11-21T04:56:28;99290.38;;;-8.53
76541;BMP280;65385;55.772;37.658;2023-11-21T04:57:29;99297.84;;;-8.52
76541;BMP280;65385;55.772;37.658;2023-11-21T04:58:30;99301.31;;;-8.53
76541;BMP280;65385;55.772;37.658;2023-11-21T04:59:31;99287.72;;;-8.52
76541;BMP280;65385;55.772;37.658;2023-11-21T05:00:31;99298.53;;;-8.50
76541;BMP280;65385;55.772;37.658;2023-11-21T05:01:32;99297.84;;;-8.52
76541;BMP280;65385;55.772;37.658;2023-11-21T05:02:33;99292.53;;;-8.49
76541;BMP280;65385;55.772;37.658;2023-11-21T05:03:39;99296.94;;;-8.41
76541;BMP280;65385;55.772;37.658;2023-11-21T05:04:40;99306.78;;;-8.48
76541;BMP280;65385;55.772;37.658;2023-11-21T05:05:43;99312.50;;;-8.46
76541;BMP280;65385;55.772;37.658;2023-11-21T05:06:44;99298.09;;;-8.55
76541;BMP280;65385;55.772;37.658;2023-11-21T05:07:44;99296.94;;;-8.51
76541;BMP280;65385;55.772;37.658;2023-11-21T05:08:45;99313.03;;;-8.52
76541;BMP280;65385;55.772;37.658;2023-11-21T05:09:46;99304.78;;;-8.54
76541;BMP280;65385;55.772;37.658;2023-11-21T05:10:46;99303.44;;;-8.48
76541;BMP280;65385;55.772;37.658;2023-11-21T05:11:47;99291.44;;;-8.46
76541;BMP280;65385;55.772;37.658;2023-11-21T05:12:48;99300.91;;;-8.48
76541;BMP280;65385;55.772;37.658;2023-11-21T05:13:50;99317.56;;;-8.46
76541;BMP280;65385;55.772;37.658;2023-11-21T05:14:51;99310.41;;;-8.50
76541;BMP280;65385;55.772;37.658;2023-11-21T05:15:53;99300.78;;;-8.47
76541;BMP280;65385;55.772;37.658;2023-11-21T05:16:54;99314.38;;;-8.48
76541;BMP280;65385;55.772;37.658;2023-11-21T05:17:55;99309.03;;;-8.45
76541;BMP280;65385;55.772;37.658;2023-11-21T05:18:55;99309.59;;;-8.41
76541;BMP280;65385;55.772;37.658;2023-11-21T05:20:01;99300.09;;;-8.39
76541;BMP280;65385;55.772;37.658;2023-11-21T05:21:04;99310.38;;;-8.41
76541;BMP280;65385;55.772;37.658;2023-11-21T05:22:05;99327.44;;;-8.43
76541;BMP280;65385;55.772;37.658;2023-11-21T05:23:07;99326.22;;;-8.38
76541;BMP280;65385;55.772;37.658;2023-11-21T05:24:08;99315.16;;;-8.37
76541;BMP280;65385;55.772;37.658;2023-11-21T05:25:09;99305.56;;;-8.34
76541;BMP280;65385;55.772;37.658;2023-11-21T05:26:10;99290.19;;;-8.32
76541;BMP280;65385;55.772;37.658;2023-11-21T05:27:10;99295.94;;;-8.30
76541;BMP280;65385;55.772;37.658;2023-11-21T05:28:12;99291.13;;;-8.33
76541;BMP280;65385;55.772;37.658;2023-11-21T05:29:12;99303.16;;;-8.35
76541;BMP280;65385;55.772;37.658;2023-11-21T05:30:13;99310.34;;;-8.31
76541;BMP280;65385;55.772;37.658;2023-11-21T05:31:14;99303.66;;;-8.32
76541;BMP280;65385;55.772;37.658;2023-11-21T05:32:15;99297.78;;;-8.32
76541;BMP280;65385;55.772;37.658;2023-11-21T05:33:17;99313.28;;;-8.35
76541;BMP280;65385;55.772;37.658;2023-11-21T05:34:19;99287.03;;;-8.34
76541;BMP280;65385;55.772;37.658;2023-11-21T05:35:21;99297.16;;;-8.34
76541;BMP280;65385;55.772;37.658;2023-11-21T05:36:22;99310.91;;;-8.37
76541;BMP280;65385;55.772;37.658;2023-11-21T05:37:22;99305.38;;;-8.32
76541;BMP280;65385;55.772;37.658;2023-11-21T05:38:23;99291.44;;;-8.36
76541;BMP280;65385;55.772;37.658;2023-11-21T05:39:24;99305.81;;;-8.37
76541;BMP280;65385;55.772;37.658;2023-11-21T05:40:25;99309.28;;;-8.38
76541;BMP280;65385;55.772;37.658;2023-11-21T05:41:29;99297.56;;;-8.39
76541;BMP280;65385;55.772;37.658;2023-11-21T05:42:34;99306.63;;;-8.36
76541;BMP280;65385;55.772;37.658;2023-11-21T05:43:34;99281.94;;;-8.34
76541;BMP280;65385;55.772;37.658;2023-11-21T05:44:41;99318.63;;;-8.38
76541;BMP280;65385;55.772;37.658;2023-11-21T05:45:43;99301.03;;;-8.40
76541;BMP280;65385;55.772;37.658;2023-11-21T05:46:44;99320.78;;;-8.44
76541;BMP280;65385;55.772;37.658;2023-11-21T05:47:45;99316.78;;;-8.46
76541;BMP280;65385;55.772;37.658;2023-11-21T05:48:47;99293.47;;;-8.50